Time,TemperatureF,DewpointF,PressureIn,WindDirection,WindDirectionDegrees,WindSpeedMPH,WindSpeedGustMPH,Humidity,HourlyPrecipIn,Conditions,Clouds,dailyrainin,SoftwareType,DateUTC
2013-04-19 00:07:00,67.3,58.0,29.96,SSE,162,3.0,9.0,72,0.00,,,0.00,weatherlink.com 1.10,2013-04-19 04:07:00,
2013-04-19 00:22:00,67.6,58.0,29.95,SSE,161,6.0,11.0,71,0.00,,,0.00,weatherlink.com 1.10,2013-04-19 04:22:00,
2013-04-19 00:37:00,67.6,58.0,29.95,South,175,7.0,14.0,71,0.00,,,0.00,weatherlink.com 1.10,2013-04-19 04:37:00,
2013-04-19 00:52:00,67.4,58.0,29.95,South,183,6.0,13.0,71,0.00,,,0.00,weatherlink.com 1.10,2013-04-19 04:52:00,
2013-04-19 01:07:00,67.2,58.0,29.95,South,180,4.0,13.0,72,0.00,,,0.00,weatherlink.com 1.10,2013-04-19 05:07:00,
2013-04-19 01:22:00,66.8,58.0,29.94,South,178,8.0,10.0,73,0.00,,,0.00,weatherlink.com 1.10,2013-04-19 05:22:00,
2013-04-19 01:37:00,66.5,58.0,29.93,SSE,152,7.0,9.0,75,0.00,,,0.00,weatherlink.com 1.10,2013-04-19 05:37:00,
2013-04-19 01:52:00,66.5,58.0,29.92,SSE,148,6.0,17.0,75,0.00,,,0.00,weatherlink.com 1.10,2013-04-19 05:52:00,
2013-04-19 02:07:00,66.2,58.0,29.91,SSE,151,9.0,11.0,76,0.00,,,0.00,weatherlink.com 1.10,2013-04-19 06:07:00,
2013-04-19 02:22:00,65.9,59.0,29.90,SSE,166,8.0,13.0,77,0.00,,,0.00,weatherlink.com 1.10,2013-04-19 06:22:00,
2013-04-19 02:37:00,65.8,59.0,29.90,SE,136,13.0,14.0,78,0.00,,,0.00,weatherlink.com 1.10,2013-04-19 06:37:00,
2013-04-19 02:52:00,65.6,59.0,29.89,SE,142,10.0,15.0,79,0.00,,,0.00,weatherlink.com 1.10,2013-04-19 06:52:00,
2013-04-19 03:07:00,65.4,59.0,29.89,SSE,156,7.0,12.0,80,0.00,,,0.00,weatherlink.com 1.10,2013-04-19 07:07:00,
2013-04-19 03:22:00,65.2,59.0,29.88,SE,138,9.0,17.0,80,0.00,,,0.00,weatherlink.com 1.10,2013-04-19 07:22:00,
2013-04-19 03:37:00,65.2,59.0,29.87,SE,146,7.0,16.0,81,0.00,,,0.00,weatherlink.com 1.10,2013-04-19 07:37:00,
2013-04-19 03:52:00,65.0,59.0,29.87,SSE,159,11.0,16.0,82,0.00,,,0.00,weatherlink.com 1.10,2013-04-19 07:52:00,
2013-04-19 04:07:00,64.8,60.0,29.87,SE,135,7.0,14.0,83,0.00,,,0.00,weatherlink.com 1.10,2013-04-19 08:07:00,
2013-04-19 04:22:00,64.6,60.0,29.86,SSE,159,7.0,11.0,84,0.00,,,0.00,weatherlink.com 1.10,2013-04-19 08:22:00,
2013-04-19 04:37:00,64.4,60.0,29.86,SE,140,6.0,13.0,84,0.00,,,0.00,weatherlink.com 1.10,2013-04-19 08:37:00,
2013-04-19 04:52:00,64.4,60.0,29.86,SSE,156,4.0,11.0,84,0.00,,,0.00,weatherlink.com 1.10,2013-04-19 08:52:00,
2013-04-19 05:07:00,64.4,60.0,29.85,SSE,148,5.0,10.0,85,0.00,,,0.00,weatherlink.com 1.10,2013-04-19 09:07:00,
2013-04-19 05:22:00,64.5,60.0,29.85,SE,138,8.0,12.0,85,0.00,,,0.00,weatherlink.com 1.10,2013-04-19 09:22:00,
2013-04-19 05:37:00,64.4,60.0,29.84,SSE,164,4.0,13.0,85,0.00,,,0.00,weatherlink.com 1.10,2013-04-19 09:37:00,
2013-04-19 05:52:00,64.3,60.0,29.84,South,178,6.0,12.0,86,0.00,,,0.00,weatherlink.com 1.10,2013-04-19 09:52:00,
2013-04-19 06:07:00,64.2,60.0,29.84,SSE,162,3.0,9.0,86,0.00,,,0.00,weatherlink.com 1.10,2013-04-19 10:07:00,
2013-04-19 06:23:00,64.1,60.0,29.84,SE,142,6.0,9.0,87,0.00,,,0.00,weatherlink.com 1.10,2013-04-19 10:23:00,
2013-04-19 06:38:00,64.2,60.0,29.84,South,171,5.0,13.0,87,0.00,,,0.00,weatherlink.com 1.10,2013-04-19 10:38:00,
2013-04-19 06:53:00,64.1,61.0,29.84,SSE,156,5.0,10.0,88,0.00,,,0.00,weatherlink.com 1.10,2013-04-19 10:53:00,
2013-04-19 07:08:00,64.2,61.0,29.84,SSE,153,9.0,12.0,88,0.00,,,0.00,weatherlink.com 1.10,2013-04-19 11:08:00,
2013-04-19 07:23:00,64.6,61.0,29.84,SSE,155,8.0,14.0,87,0.00,,,0.00,weatherlink.com 1.10,2013-04-19 11:23:00,
2013-04-19 07:38:00,64.8,61.0,29.83,SSE,167,6.0,11.0,87,0.00,,,0.00,weatherlink.com 1.10,2013-04-19 11:38:00,
2013-04-19 07:53:00,64.9,61.0,29.83,SE,143,7.0,12.0,87,0.00,,,0.00,weatherlink.com 1.10,2013-04-19 11:53:00,
2013-04-19 08:08:00,65.2,61.0,29.83,SSE,147,9.0,14.0,87,0.00,,,0.00,weatherlink.com 1.10,2013-04-19 12:08:00,
2013-04-19 08:23:00,65.2,61.0,29.83,SE,146,10.0,19.0,86,0.00,,,0.00,weatherlink.com 1.10,2013-04-19 12:23:00,
2013-04-19 08:38:00,65.4,61.0,29.82,SSE,150,12.0,14.0,86,0.00,,,0.00,weatherlink.com 1.10,2013-04-19 12:38:00,
2013-04-19 08:53:00,65.7,62.0,29.82,SSE,158,5.0,16.0,86,0.00,,,0.00,weatherlink.com 1.10,2013-04-19 12:53:00,
2013-04-19 09:08:00,66.1,62.0,29.81,SE,141,12.0,16.0,85,0.00,,,0.00,weatherlink.com 1.10,2013-04-19 13:08:00,
2013-04-19 09:23:00,66.2,62.0,29.80,SSE,148,9.0,15.0,86,0.00,,,0.00,weatherlink.com 1.10,2013-04-19 13:23:00,
2013-04-19 09:38:00,66.3,62.0,29.80,SSE,158,11.0,16.0,86,0.00,,,0.00,weatherlink.com 1.10,2013-04-19 13:38:00,
2013-04-19 09:53:00,66.5,62.0,29.80,SSE,154,10.0,16.0,85,0.00,,,0.00,weatherlink.com 1.10,2013-04-19 13:53:00,
2013-04-19 10:08:00,67.0,62.0,29.80,SE,138,8.0,14.0,85,0.00,,,0.00,weatherlink.com 1.10,2013-04-19 14:08:00,
2013-04-19 10:23:00,67.3,63.0,29.79,SSE,159,7.0,14.0,85,0.00,,,0.00,weatherlink.com 1.10,2013-04-19 14:23:00,
2013-04-19 10:38:00,67.8,63.0,29.79,SSE,168,12.0,19.0,84,0.00,,,0.00,weatherlink.com 1.10,2013-04-19 14:38:00,
2013-04-19 10:53:00,68.3,63.0,29.78,SE,146,12.0,20.0,83,0.00,,,0.00,weatherlink.com 1.10,2013-04-19 14:53:00,
2013-04-19 11:08:00,68.9,63.0,29.78,SSE,157,15.0,17.0,82,0.00,,,0.00,weatherlink.com 1.10,2013-04-19 15:08:00,
2013-04-19 11:23:00,68.1,64.0,29.78,SE,138,7.0,14.0,85,0.00,,,0.00,weatherlink.com 1.10,2013-04-19 15:23:00,
2013-04-19 11:38:00,68.0,63.0,29.78,SSE,161,6.0,13.0,85,0.00,,,0.00,weatherlink.com 1.10,2013-04-19 15:38:00,
2013-04-19 11:53:00,67.4,64.0,29.78,SSE,150,6.0,17.0,88,0.01,,,0.01,weatherlink.com 1.10,2013-04-19 15:53:00,
2013-04-19 12:08:00,67.8,64.0,29.77,SE,143,5.0,12.0,88,0.01,,,0.01,weatherlink.com 1.10,2013-04-19 16:08:00,
2013-04-19 12:23:00,68.9,65.0,29.76,SSE,165,12.0,17.0,87,0.01,,,0.01,weatherlink.com 1.10,2013-04-19 16:23:00,
2013-04-19 12:38:00,70.6,66.0,29.74,SSE,149,9.0,20.0,84,0.01,,,0.01,weatherlink.com 1.10,2013-04-19 16:38:00,
2013-04-19 12:53:00,70.6,65.0,29.73,SE,146,15.0,21.0,82,0.00,,,0.01,weatherlink.com 1.10,2013-04-19 16:53:00,
2013-04-19 13:08:00,70.2,65.0,29.72,SE,142,12.0,18.0,82,0.00,,,0.01,weatherlink.com 1.10,2013-04-19 17:08:00,
2013-04-19 13:23:00,70.0,65.0,29.71,South,175,4.0,13.0,83,0.00,,,0.01,weatherlink.com 1.10,2013-04-19 17:23:00,
2013-04-19 13:38:00,69.7,65.0,29.70,South,185,4.0,10.0,84,0.00,,,0.01,weatherlink.com 1.10,2013-04-19 17:38:00,
2013-04-19 13:53:00,69.8,65.0,29.68,South,184,5.0,7.0,84,0.00,,,0.01,weatherlink.com 1.10,2013-04-19 17:53:00,
2013-04-19 14:08:00,70.2,65.0,29.67,SSE,163,4.0,7.0,83,0.00,,,0.01,weatherlink.com 1.10,2013-04-19 18:08:00,
2013-04-19 14:24:00,70.5,65.0,29.67,South,178,6.0,7.0,82,0.00,,,0.01,weatherlink.com 1.10,2013-04-19 18:24:00,
2013-04-19 14:39:00,70.8,65.0,29.65,SE,144,14.0,16.0,82,0.00,,,0.01,weatherlink.com 1.10,2013-04-19 18:39:00,
2013-04-19 14:54:00,72.1,65.0,29.64,South,177,6.0,17.0,79,0.00,,,0.01,weatherlink.com 1.10,2013-04-19 18:54:00,
2013-04-19 15:09:00,72.6,65.0,29.64,SSE,152,13.0,15.0,77,0.00,,,0.01,weatherlink.com 1.10,2013-04-19 19:09:00,
2013-04-19 15:24:00,73.3,65.0,29.63,South,178,15.0,21.0,75,0.00,,,0.01,weatherlink.com 1.10,2013-04-19 19:24:00,
2013-04-19 15:39:00,73.6,66.0,29.62,SSE,148,9.0,15.0,76,0.00,,,0.01,weatherlink.com 1.10,2013-04-19 19:39:00,
2013-04-19 15:54:00,74.4,66.0,29.61,SSE,168,9.0,22.0,74,0.00,,,0.01,weatherlink.com 1.10,2013-04-19 19:54:00,
2013-04-19 16:09:00,74.4,66.0,29.61,SE,144,14.0,21.0,74,0.00,,,0.01,weatherlink.com 1.10,2013-04-19 20:09:00,
2013-04-19 16:24:00,74.3,66.0,29.60,SE,142,8.0,19.0,75,0.00,,,0.01,weatherlink.com 1.10,2013-04-19 20:24:00,
2013-04-19 16:39:00,74.5,66.0,29.59,SE,141,19.0,20.0,74,0.00,,,0.01,weatherlink.com 1.10,2013-04-19 20:39:00,
2013-04-19 16:54:00,73.5,66.0,29.60,South,177,9.0,23.0,77,0.00,,,0.01,weatherlink.com 1.10,2013-04-19 20:54:00,
2013-04-19 17:09:00,71.8,66.0,29.60,South,187,9.0,23.0,81,0.02,,,0.03,weatherlink.com 1.10,2013-04-19 21:09:00,
2013-04-19 17:24:00,70.7,66.0,29.60,SSW,198,9.0,13.0,85,0.04,,,0.05,weatherlink.com 1.10,2013-04-19 21:24:00,
2013-04-19 17:39:00,69.6,66.0,29.59,SW,217,7.0,9.0,89,0.09,,,0.10,weatherlink.com 1.10,2013-04-19 21:39:00,
2013-04-19 17:54:00,68.7,66.0,29.62,SW,214,9.0,16.0,92,0.27,,,0.28,weatherlink.com 1.10,2013-04-19 21:54:00,
2013-04-19 18:09:00,68.2,66.0,29.61,SSW,200,15.0,20.0,92,0.29,,,0.32,weatherlink.com 1.10,2013-04-19 22:09:00,
2013-04-19 18:24:00,67.9,66.0,29.61,SSW,193,5.0,11.0,92,0.26,,,0.32,weatherlink.com 1.10,2013-04-19 22:24:00,
2013-04-19 18:39:00,67.7,65.0,29.59,SSW,202,7.0,12.0,91,0.22,,,0.32,weatherlink.com 1.10,2013-04-19 22:39:00,
2013-04-19 18:54:00,67.1,65.0,29.61,SSE,162,10.0,13.0,91,0.04,,,0.33,weatherlink.com 1.10,2013-04-19 22:54:00,
2013-04-19 19:09:00,66.3,64.0,29.61,SE,140,15.0,19.0,92,0.01,,,0.33,weatherlink.com 1.10,2013-04-19 23:09:00,
2013-04-19 19:24:00,65.6,64.0,29.61,SSE,165,8.0,13.0,93,0.01,,,0.33,weatherlink.com 1.10,2013-04-19 23:24:00,
2013-04-19 19:39:00,65.3,63.0,29.60,South,171,5.0,12.0,93,0.01,,,0.33,weatherlink.com 1.10,2013-04-19 23:39:00,
2013-04-19 19:54:00,65.1,63.0,29.60,SSE,167,9.0,10.0,93,0.00,,,0.33,weatherlink.com 1.10,2013-04-19 23:54:00,
2013-04-19 20:09:00,64.9,63.0,29.61,SSE,151,10.0,11.0,94,0.01,,,0.34,weatherlink.com 1.10,2013-04-20 00:09:00,
2013-04-19 20:24:00,64.8,63.0,29.62,South,191,4.0,12.0,94,0.01,,,0.34,weatherlink.com 1.10,2013-04-20 00:24:00,
2013-04-19 20:39:00,65.0,63.0,29.63,SE,130,4.0,12.0,93,0.10,,,0.43,weatherlink.com 1.10,2013-04-20 00:39:00,
2013-04-19 20:54:00,64.9,63.0,29.64,SSE,160,3.0,7.0,94,0.14,,,0.47,weatherlink.com 1.10,2013-04-20 00:54:00,
2013-04-19 21:09:00,64.4,62.0,29.67,SSW,204,8.0,10.0,90,0.15,,,0.49,weatherlink.com 1.10,2013-04-20 01:09:00,
2013-04-19 21:24:00,63.8,59.0,29.68,West,263,11.0,14.0,85,0.14,,,0.49,weatherlink.com 1.10,2013-04-20 01:24:00,
2013-04-19 21:39:00,62.7,56.0,29.68,WSW,257,6.0,11.0,80,0.05,,,0.49,weatherlink.com 1.10,2013-04-20 01:39:00,
2013-04-19 21:54:00,62.2,57.0,29.66,West,276,1.0,8.0,82,0.02,,,0.49,weatherlink.com 1.10,2013-04-20 01:54:00,
2013-04-19 22:09:00,61.1,56.0,29.70,SW,234,6.0,6.0,84,0.00,,,0.49,weatherlink.com 1.10,2013-04-20 02:09:00,
2013-04-19 22:24:00,60.4,55.0,29.70,SW,219,2.0,4.0,82,0.00,,,0.49,weatherlink.com 1.10,2013-04-20 02:24:00,
2013-04-19 22:39:00,60.3,54.0,29.70,SSE,168,0.0,5.0,81,0.00,,,0.49,weatherlink.com 1.10,2013-04-20 02:39:00,
2013-04-19 22:54:00,60.3,53.0,29.71,South,188,2.0,7.0,76,0.00,,,0.49,weatherlink.com 1.10,2013-04-20 02:54:00,
2013-04-19 23:09:00,59.4,49.0,29.71,WSW,241,6.0,12.0,68,0.00,,,0.49,weatherlink.com 1.10,2013-04-20 03:09:00,
2013-04-19 23:24:00,59.4,45.0,29.71,SW,214,9.0,15.0,59,0.00,,,0.49,weatherlink.com 1.10,2013-04-20 03:24:00,
2013-04-19 23:39:00,59.1,45.0,29.71,WSW,244,9.0,12.0,59,0.00,,,0.49,weatherlink.com 1.10,2013-04-20 03:39:00,
2013-04-19 23:54:00,58.9,43.0,29.72,WSW,241,7.0,11.0,57,0.00,,,0.49,weatherlink.com 1.10,2013-04-20 03:54:00,